KNLC/NLC METAR and TAF weather

Enter ICAO airport designator
Station Type Date Time Source
KNLC METAR 2022/01/26 12:56 UTC NOAA

KNLC 261256Z AUTO 23003KT FEW015 01/00 A3013 RMK AO2 SLP204 T00110000 RVRNO $


Station Type Date Time Source
KNLC Decoded METAR 2022/01/26 12:56 UTC NOAA

LEMOORE NAVAL AIR STATION, CA, United States (KNLC) 36-20N 119-57W 72M
Jan 26, 2022 - 07:56 AM EST / 2022.01.26 1256 UTC
Wind: from the SW (230 degrees) at 3 MPH (3 KT):0
Sky conditions: mostly clear
Temperature: 34.0 F (1.1 C)
Dew Point: 32.0 F (0.0 C)
Relative Humidity: 92%
Pressure (altimeter): 30.13 in. Hg (1020 hPa)
ob: KNLC 261256Z AUTO 23003KT FEW015 01/00 A3013 RMK AO2 SLP204 T00110000 RVRNO
cycle: 13

Station Type Date Time Source
KNLC TAF 2022/01/26 07:57 UTC NOAA

TAF KNLC 2607/2707 VRB06KT 9999 SKC QNH3005INS
FM261500 VRB06KT 9999 SKC QNH3003INS T00/2614Z T18/2623Z FS30012

Example: see airport list